Time;durP1;ratioP1;P1;durP2;ratioP2;P2;SDS_P1;SDS_P2;PMS_P1;PMS_P2;Temp;Humidity;BMP_temperature;BMP_pressure;BME280_temperature;BME280_humidity;BME280_pressure;Samples;Min_cycle;Max_cycle;Signal;HPM_P1;HPM_P2
2021/05/19 00:01:42;;;;;;;11.80;7.05;;;8.00;99.90;;;;;;3535212;40;20331;-66
2021/05/19 00:04:09;;;;;;;13.10;7.22;;;8.00;99.90;;;;;;3537369;40;20673;-67
2021/05/19 00:06:35;;;;;;;10.20;5.97;;;8.00;99.90;;;;;;3534159;40;20083;-66
2021/05/19 00:09:02;;;;;;;9.65;5.65;;;8.00;99.90;;;;;;3538230;40;20047;-66
2021/05/19 00:11:28;;;;;;;11.15;4.90;;;7.90;99.90;;;;;;3535286;40;20038;-66
2021/05/19 00:13:54;;;;;;;8.20;5.45;;;7.90;99.90;;;;;;3538730;40;20053;-66
2021/05/19 00:16:19;;;;;;;12.32;5.28;;;7.80;99.90;;;;;;3536766;40;20070;-66
2021/05/19 00:18:45;;;;;;;10.57;4.85;;;7.70;99.90;;;;;;3543447;40;20054;-66
2021/05/19 00:21:11;;;;;;;8.25;5.28;;;7.60;99.90;;;;;;3536209;40;20605;-66
2021/05/19 00:23:37;;;;;;;11.65;5.80;;;7.60;99.90;;;;;;3537315;40;20435;-66
2021/05/19 00:26:04;;;;;;;11.57;6.07;;;7.60;99.90;;;;;;3539622;40;20046;-66
2021/05/19 00:28:30;;;;;;;10.20;5.80;;;7.60;99.90;;;;;;3536073;40;20078;-66
2021/05/19 00:30:58;;;;;;;16.48;6.55;;;7.60;99.90;;;;;;3534134;40;20043;-66
2021/05/19 00:33:24;;;;;;;16.73;7.28;;;7.60;99.90;;;;;;3533201;40;20039;-66
2021/05/19 00:35:50;;;;;;;10.38;6.65;;;7.60;99.90;;;;;;3535449;40;20059;-66
2021/05/19 00:38:17;;;;;;;11.00;5.93;;;7.60;99.90;;;;;;3536555;40;20033;-66
2021/05/19 00:40:43;;;;;;;15.20;8.35;;;7.60;99.90;;;;;;3535905;40;20042;-66
2021/05/19 00:43:08;;;;;;;16.65;8.38;;;7.70;99.90;;;;;;3539426;40;20030;-66
2021/05/19 00:45:34;;;;;;;15.68;7.47;;;7.80;99.90;;;;;;3531683;40;20094;-66
2021/05/19 00:48:00;;;;;;;13.68;7.68;;;7.90;99.90;;;;;;3535693;40;20054;-66
2021/05/19 00:50:29;;;;;;;13.07;7.28;;;7.80;99.90;;;;;;3534034;40;20039;-66
2021/05/19 00:52:55;;;;;;;12.98;7.35;;;7.80;99.90;;;;;;3537158;40;20058;-66
2021/05/19 00:55:22;;;;;;;12.35;6.55;;;7.80;99.90;;;;;;3539729;40;20037;-66
2021/05/19 00:57:50;;;;;;;10.80;5.97;;;7.80;99.90;;;;;;3532113;40;20074;-66
2021/05/19 01:00:18;;;;;;;8.85;5.82;;;7.80;99.90;;;;;;3539509;40;20670;-66
2021/05/19 01:02:55;;;;;;;12.90;7.07;;;7.80;99.90;;;;;;3542776;40;20054;-66
2021/05/19 01:05:50;;;;;;;14.73;7.90;;;7.80;99.90;;;;;;3535870;40;20059;-66
2021/05/19 01:11:07;;;;;;;10.02;6.65;;;8.00;99.90;;;;;;3536068;40;20570;-66
2021/05/19 01:13:33;;;;;;;9.55;6.15;;;8.10;99.90;;;;;;3535946;40;20050;-66
2021/05/19 01:16:00;;;;;;;11.95;6.78;;;8.10;99.90;;;;;;3539353;40;20136;-66
2021/05/19 01:18:26;;;;;;;12.30;7.25;;;8.20;99.90;;;;;;3538977;40;20038;-66
2021/05/19 01:20:55;;;;;;;14.30;7.45;;;8.20;99.90;;;;;;3540394;40;20760;-66
2021/05/19 01:23:21;;;;;;;19.20;7.93;;;8.40;99.90;;;;;;3531907;40;20039;-66
2021/05/19 01:25:47;;;;;;;10.88;7.43;;;8.40;99.90;;;;;;3534330;40;20308;-66
2021/05/19 01:28:12;;;;;;;16.25;7.47;;;8.50;99.90;;;;;;3537163;40;20091;-66
2021/05/19 01:30:38;;;;;;;12.32;7.07;;;8.50;99.90;;;;;;3535623;40;20054;-66
2021/05/19 01:33:04;;;;;;;9.20;5.78;;;8.50;99.90;;;;;;3535262;40;20043;-66
2021/05/19 01:35:30;;;;;;;8.50;5.53;;;8.60;99.90;;;;;;3539215;40;20393;-66
2021/05/19 01:37:56;;;;;;;9.88;5.60;;;8.60;99.90;;;;;;3536280;40;20030;-66
2021/05/19 01:40:23;;;;;;;9.15;5.38;;;8.60;99.90;;;;;;3534693;40;20039;-66
2021/05/19 01:42:51;;;;;;;7.65;5.57;;;8.60;99.90;;;;;;3535250;40;20042;-66
2021/05/19 01:45:37;;;;;;;9.88;5.28;;;8.60;99.90;;;;;;3538888;40;20430;-66
2021/05/19 01:48:04;;;;;;;10.45;6.65;;;8.70;99.90;;;;;;3534923;40;20065;-66
2021/05/19 01:50:33;;;;;;;8.98;6.57;;;8.80;99.90;;;;;;3538987;40;20054;-66
2021/05/19 01:53:01;;;;;;;14.93;7.15;;;8.80;99.90;;;;;;3538078;40;20038;-66
2021/05/19 01:55:27;;;;;;;11.73;6.97;;;8.90;99.90;;;;;;3537037;40;20088;-66
2021/05/19 01:57:54;;;;;;;13.93;7.68;;;9.00;99.90;;;;;;3535578;40;20103;-66
2021/05/19 02:00:24;;;;;;;9.50;5.65;;;9.00;99.90;;;;;;3539326;40;20671;-65
2021/05/19 02:03:08;;;;;;;10.00;5.63;;;9.00;99.90;;;;;;3538130;40;20145;-66
2021/05/19 02:05:52;;;;;;;9.00;5.38;;;9.00;99.90;;;;;;3537974;40;20189;-66
2021/05/19 02:08:18;;;;;;;9.00;5.15;;;9.10;99.90;;;;;;3535220;40;20624;-65
2021/05/19 02:10:43;;;;;;;8.80;5.63;;;9.10;99.90;;;;;;3539672;40;20126;-66
2021/05/19 02:13:11;;;;;;;11.25;5.30;;;9.10;99.90;;;;;;3538302;40;20042;-66
2021/05/19 02:15:37;;;;;;;7.65;5.40;;;9.10;99.90;;;;;;3537861;40;20038;-66
2021/05/19 02:18:06;;;;;;;8.77;5.28;;;9.20;99.90;;;;;;3537727;40;20038;-66
2021/05/19 02:20:33;;;;;;;9.90;6.03;;;9.20;99.90;;;;;;3536862;40;20133;-66
2021/05/19 02:23:00;;;;;;;8.38;5.65;;;9.20;99.90;;;;;;3537759;40;20035;-66
2021/05/19 02:25:27;;;;;;;10.18;5.65;;;9.20;99.90;;;;;;3537660;40;20035;-66
2021/05/19 02:27:53;;;;;;;10.15;5.40;;;9.20;99.90;;;;;;3527855;40;20035;-66
2021/05/19 02:30:25;;;;;;;12.07;5.63;;;9.20;99.90;;;;;;3537169;40;20050;-66
2021/05/19 02:32:51;;;;;;;9.40;5.65;;;9.10;99.90;;;;;;3535136;40;20305;-66
2021/05/19 02:35:19;;;;;;;13.52;7.38;;;9.10;99.90;;;;;;3534551;40;20152;-66
2021/05/19 02:37:51;;;;;;;11.15;6.47;;;9.20;99.90;;;;;;3537508;40;20050;-67
2021/05/19 02:40:17;;;;;;;10.93;6.85;;;9.20;99.90;;;;;;3537292;40;20041;-67
2021/05/19 02:42:45;;;;;;;11.40;7.53;;;9.20;99.90;;;;;;3545117;40;20332;-67
2021/05/19 02:45:16;;;;;;;13.93;7.93;;;9.30;99.90;;;;;;3545115;40;20108;-67
2021/05/19 02:47:42;;;;;;;14.55;7.65;;;9.40;99.90;;;;;;3540030;40;20034;-67
2021/05/19 02:50:08;;;;;;;12.32;7.85;;;9.40;99.90;;;;;;3535710;40;20042;-67
2021/05/19 02:52:34;;;;;;;13.00;8.20;;;9.50;99.90;;;;;;3534612;40;20035;-67
2021/05/19 02:55:00;;;;;;;16.27;9.07;;;9.50;99.90;;;;;;3538411;40;20344;-67
2021/05/19 02:57:26;;;;;;;16.77;8.25;;;9.50;99.90;;;;;;3537787;40;20143;-67
2021/05/19 02:59:51;;;;;;;12.98;7.85;;;9.50;99.90;;;;;;3538948;40;20120;-67
2021/05/19 03:02:17;;;;;;;16.67;9.00;;;9.50;99.90;;;;;;3540808;40;20781;-67
2021/05/19 03:04:43;;;;;;;12.75;8.00;;;9.50;99.90;;;;;;3533394;40;20396;-67
2021/05/19 03:07:08;;;;;;;16.42;9.57;;;9.50;99.90;;;;;;3540041;40;20041;-67
2021/05/19 03:09:34;;;;;;;14.45;9.75;;;9.60;99.90;;;;;;3537000;40;20050;-67
2021/05/19 03:12:00;;;;;;;16.73;8.73;;;9.60;99.90;;;;;;3537004;40;20312;-67
2021/05/19 03:14:26;;;;;;;17.63;9.48;;;9.60;99.90;;;;;;3536748;40;20352;-67
2021/05/19 03:16:52;;;;;;;17.02;9.55;;;9.60;99.90;;;;;;3539494;40;20038;-67
2021/05/19 03:19:17;;;;;;;15.75;9.73;;;9.70;99.90;;;;;;3535988;40;20037;-67
2021/05/19 03:21:44;;;;;;;17.75;10.02;;;9.70;99.90;;;;;;3539152;40;20038;-67
2021/05/19 03:24:10;;;;;;;18.40;11.02;;;9.70;99.90;;;;;;3538905;40;20097;-67
2021/05/19 03:26:35;;;;;;;16.90;9.68;;;9.80;99.90;;;;;;3534736;40;20125;-67
2021/05/19 03:29:01;;;;;;;17.45;10.93;;;9.80;99.90;;;;;;3541285;40;20775;-67
2021/05/19 03:31:27;;;;;;;25.23;11.23;;;9.80;99.90;;;;;;3534369;40;20859;-67
2021/05/19 03:33:53;;;;;;;16.85;10.27;;;9.90;99.90;;;;;;3536517;40;20042;-67
2021/05/19 03:36:18;;;;;;;24.30;11.45;;;10.00;99.90;;;;;;3538248;40;20408;-68
2021/05/19 03:38:44;;;;;;;18.95;11.07;;;10.00;99.90;;;;;;3539918;40;20427;-68
2021/05/19 03:41:10;;;;;;;16.58;9.52;;;10.10;99.90;;;;;;3534379;40;20037;-68
2021/05/19 03:43:37;;;;;;;18.08;10.30;;;10.10;99.90;;;;;;3533771;40;20030;-67
2021/05/19 03:46:03;;;;;;;18.25;10.82;;;10.10;99.90;;;;;;3537833;40;20046;-68
2021/05/19 03:48:29;;;;;;;18.48;10.77;;;10.10;99.90;;;;;;3534942;40;20038;-67
2021/05/19 03:50:55;;;;;;;15.65;9.45;;;10.10;99.90;;;;;;3537632;40;20113;-68
2021/05/19 03:53:21;;;;;;;15.68;9.13;;;10.20;99.90;;;;;;3533621;40;20049;-68
2021/05/19 03:55:47;;;;;;;14.15;9.55;;;10.20;99.90;;;;;;3534868;40;20053;-68
2021/05/19 03:58:14;;;;;;;16.42;9.57;;;10.20;99.90;;;;;;3535060;40;20034;-68
2021/05/19 04:00:40;;;;;;;15.00;9.65;;;10.20;99.90;;;;;;3538699;40;20035;-68
2021/05/19 04:03:06;;;;;;;17.38;10.15;;;10.30;99.90;;;;;;3533554;40;20070;-68
2021/05/19 04:05:35;;;;;;;17.10;10.02;;;10.30;99.90;;;;;;3538252;40;20052;-67
2021/05/19 04:08:01;;;;;;;18.23;10.85;;;10.30;99.90;;;;;;3538874;40;20823;-68
2021/05/19 04:10:27;;;;;;;17.30;9.77;;;10.30;99.90;;;;;;3536076;40;20030;-68
2021/05/19 04:12:53;;;;;;;17.10;10.10;;;10.30;99.90;;;;;;3535751;40;20041;-67
2021/05/19 04:15:21;;;;;;;16.23;10.73;;;10.30;99.90;;;;;;3537678;40;20053;-68
2021/05/19 04:17:47;;;;;;;16.02;9.95;;;10.40;99.90;;;;;;3535013;40;20602;-67
2021/05/19 04:20:13;;;;;;;14.23;9.38;;;10.50;99.90;;;;;;3533466;40;20033;-68
2021/05/19 04:22:39;;;;;;;14.52;9.23;;;10.60;99.90;;;;;;3541791;40;20101;-68
2021/05/19 04:25:06;;;;;;;14.13;8.82;;;10.70;99.90;;;;;;3535300;40;20042;-68
2021/05/19 04:27:32;;;;;;;18.63;10.40;;;10.80;99.90;;;;;;3533669;40;20045;-68
2021/05/19 04:29:58;;;;;;;15.75;9.18;;;10.90;99.90;;;;;;3532741;40;20046;-68
2021/05/19 04:32:23;;;;;;;15.85;9.60;;;10.90;99.90;;;;;;3538807;40;20703;-68
2021/05/19 04:34:49;;;;;;;21.58;10.50;;;10.90;99.90;;;;;;3537461;40;20312;-68
2021/05/19 04:37:15;;;;;;;16.80;10.65;;;11.00;99.90;;;;;;3538438;40;20054;-68
2021/05/19 04:39:40;;;;;;;15.15;8.93;;;11.00;99.90;;;;;;3537341;40;20047;-68
2021/05/19 04:42:06;;;;;;;15.88;8.90;;;11.00;99.90;;;;;;3536858;40;20036;-67
2021/05/19 04:44:32;;;;;;;15.18;9.57;;;11.00;99.90;;;;;;3535047;40;20478;-67
2021/05/19 04:46:58;;;;;;;15.52;8.68;;;10.80;99.90;;;;;;3534903;40;20722;-68
2021/05/19 04:49:23;;;;;;;16.40;9.27;;;10.70;99.90;;;;;;3536277;40;20042;-68
2021/05/19 04:51:49;;;;;;;14.57;9.48;;;10.70;99.90;;;;;;3538478;40;20101;-68
2021/05/19 04:54:15;;;;;;;12.43;8.75;;;10.70;99.90;;;;;;3540099;40;20663;-68
2021/05/19 04:56:40;;;;;;;12.57;8.85;;;10.90;99.90;;;;;;3539912;40;20031;-68
2021/05/19 04:59:07;;;;;;;15.98;9.57;;;10.90;99.90;;;;;;3538215;40;20034;-67
2021/05/19 05:01:33;;;;;;;18.02;9.15;;;10.90;99.90;;;;;;3536788;40;20043;-68
2021/05/19 05:03:58;;;;;;;13.60;8.48;;;10.90;99.90;;;;;;3535501;40;20126;-59
2021/05/19 05:06:24;;;;;;;14.85;9.15;;;11.00;99.90;;;;;;3533110;40;20027;-59
2021/05/19 05:08:50;;;;;;;12.70;8.45;;;11.00;99.90;;;;;;3537091;40;20037;-59
2021/05/19 05:11:15;;;;;;;15.02;8.82;;;11.10;99.90;;;;;;3536583;40;20147;-59
2021/05/19 05:13:41;;;;;;;17.45;8.95;;;11.10;99.90;;;;;;3537197;40;20050;-59
2021/05/19 05:16:07;;;;;;;14.23;8.98;;;11.00;99.90;;;;;;3535674;40;20062;-59
2021/05/19 05:18:35;;;;;;;13.38;8.52;;;11.00;99.90;;;;;;3541255;40;20037;-59
2021/05/19 05:21:01;;;;;;;12.40;8.30;;;11.00;99.90;;;;;;3533205;40;20041;-59
2021/05/19 05:23:28;;;;;;;12.82;8.50;;;11.00;99.90;;;;;;3535143;40;20045;-59
2021/05/19 05:25:54;;;;;;;15.02;9.20;;;11.00;99.90;;;;;;3540823;40;20419;-59
2021/05/19 05:28:19;;;;;;;15.63;8.77;;;11.00;99.90;;;;;;3537679;40;20030;-59
2021/05/19 05:30:45;;;;;;;14.88;8.70;;;11.10;99.90;;;;;;3536750;40;20030;-59
2021/05/19 05:33:11;;;;;;;12.85;8.63;;;11.10;99.90;;;;;;3532414;40;20067;-59
2021/05/19 05:35:36;;;;;;;13.25;8.65;;;11.20;99.90;;;;;;3540595;40;20058;-59
2021/05/19 05:38:02;;;;;;;13.15;7.95;;;11.20;99.90;;;;;;3536999;40;20070;-59
2021/05/19 05:40:28;;;;;;;11.60;7.85;;;11.20;99.90;;;;;;3537347;40;20043;-60
2021/05/19 05:42:53;;;;;;;12.75;9.20;;;11.20;99.90;;;;;;3539297;40;20320;-59
2021/05/19 05:45:19;;;;;;;11.60;8.15;;;11.20;99.90;;;;;;3540033;40;20046;-60
2021/05/19 05:47:45;;;;;;;14.07;8.50;;;11.10;99.90;;;;;;3540325;40;20045;-59
2021/05/19 05:50:11;;;;;;;14.82;8.52;;;11.20;99.90;;;;;;3538462;40;20487;-60
2021/05/19 05:52:38;;;;;;;14.18;8.57;;;11.40;99.90;;;;;;3537264;40;20034;-59
2021/05/19 05:55:04;;;;;;;14.95;8.30;;;11.50;99.90;;;;;;3538089;40;20073;-59
2021/05/19 05:57:31;;;;;;;15.82;9.70;;;11.70;99.90;;;;;;3538319;40;20046;-60
2021/05/19 05:59:57;;;;;;;12.00;7.95;;;11.90;99.90;;;;;;3540133;40;20113;-59
2021/05/19 06:02:23;;;;;;;12.63;7.90;;;12.10;99.90;;;;;;3538701;40;20054;-59
2021/05/19 06:04:49;;;;;;;13.43;8.10;;;12.30;99.90;;;;;;3539535;40;20148;-59
2021/05/19 06:07:14;;;;;;;18.27;8.50;;;12.50;99.90;;;;;;3536201;40;20297;-59
2021/05/19 06:09:44;;;;;;;14.27;7.60;;;12.50;99.90;;;;;;3539803;40;20054;-59
2021/05/19 06:12:10;;;;;;;12.75;8.18;;;12.60;99.90;;;;;;3540929;40;20042;-59
2021/05/19 06:14:35;;;;;;;10.38;7.10;;;12.80;99.90;;;;;;3539731;40;20038;-60
2021/05/19 06:17:03;;;;;;;10.68;6.80;;;12.90;99.90;;;;;;3537789;40;20768;-60
2021/05/19 06:19:28;;;;;;;9.13;6.40;;;13.00;99.90;;;;;;3538059;40;20717;-59
2021/05/19 06:21:54;;;;;;;9.45;6.75;;;13.00;99.90;;;;;;3539440;40;20101;-61
2021/05/19 06:24:20;;;;;;;11.40;6.82;;;12.90;99.90;;;;;;3540797;40;20120;-59
2021/05/19 06:26:45;;;;;;;10.95;7.00;;;13.00;99.90;;;;;;3538996;40;20120;-59
2021/05/19 06:29:12;;;;;;;11.55;7.38;;;13.00;99.90;;;;;;3540040;40;20211;-59
2021/05/19 06:31:41;;;;;;;12.02;7.15;;;12.90;99.90;;;;;;3538563;40;20078;-59
2021/05/19 06:34:07;;;;;;;8.32;6.22;;;13.00;99.90;;;;;;3532761;40;20106;-59
2021/05/19 06:36:33;;;;;;;9.98;7.13;;;12.80;99.90;;;;;;3531232;40;20030;-59
2021/05/19 06:38:59;;;;;;;8.80;6.13;;;12.60;99.90;;;;;;3537947;40;20030;-60
2021/05/19 06:41:24;;;;;;;13.48;6.03;;;12.50;99.90;;;;;;3540079;40;20042;-59
2021/05/19 06:43:50;;;;;;;12.25;6.50;;;12.40;99.90;;;;;;3538827;40;20034;-58
2021/05/19 06:46:16;;;;;;;14.45;6.72;;;12.40;99.90;;;;;;3534295;40;20027;-59
2021/05/19 06:48:41;;;;;;;11.80;5.70;;;12.40;99.90;;;;;;3532246;40;20089;-58
2021/05/19 06:51:07;;;;;;;8.35;6.30;;;12.50;99.90;;;;;;3537273;40;20085;-58
2021/05/19 06:53:33;;;;;;;11.05;5.68;;;12.60;99.90;;;;;;3538622;40;20023;-58
2021/05/19 06:56:02;;;;;;;8.88;5.70;;;12.60;99.90;;;;;;3538758;40;20031;-58
2021/05/19 06:58:28;;;;;;;12.75;5.90;;;12.70;99.90;;;;;;3535551;40;20046;-60
2021/05/19 07:00:54;;;;;;;8.13;5.90;;;12.90;99.90;;;;;;3538020;40;20038;-59
2021/05/19 07:03:19;;;;;;;7.30;5.20;;;13.20;99.90;;;;;;3537913;40;20129;-59
2021/05/19 07:05:45;;;;;;;6.90;4.93;;;13.40;99.90;;;;;;3538622;40;20082;-59
2021/05/19 07:08:11;;;;;;;8.23;4.70;;;13.60;99.90;;;;;;3536641;40;20141;-58
2021/05/19 07:10:36;;;;;;;6.28;4.03;;;13.50;99.90;;;;;;3538348;40;20070;-60
2021/05/19 07:13:03;;;;;;;5.90;4.30;;;13.50;99.90;;;;;;3540797;40;20046;-67
2021/05/19 07:15:32;;;;;;;6.05;4.32;;;13.60;99.90;;;;;;3535709;40;20039;-67
2021/05/19 07:18:05;;;;;;;6.90;3.90;;;13.80;99.90;;;;;;3538771;40;20047;-67
2021/05/19 07:20:31;;;;;;;10.32;4.03;;;13.80;99.90;;;;;;3537666;40;20124;-67
2021/05/19 07:22:57;;;;;;;6.07;4.00;;;13.80;99.90;;;;;;3537586;40;20372;-67
2021/05/19 07:25:22;;;;;;;6.47;3.95;;;14.00;99.90;;;;;;3538609;40;20058;-67
2021/05/19 07:27:48;;;;;;;5.38;3.63;;;13.90;99.90;;;;;;3539162;40;20046;-67
2021/05/19 07:30:15;;;;;;;4.60;3.65;;;13.80;99.90;;;;;;3541519;40;20412;-67
2021/05/19 07:32:40;;;;;;;4.15;3.15;;;13.60;99.90;;;;;;3537188;40;20031;-67
2021/05/19 07:35:06;;;;;;;4.43;3.45;;;13.60;99.90;;;;;;3538989;40;20037;-67
2021/05/19 07:37:32;;;;;;;5.03;3.72;;;13.80;99.90;;;;;;3539995;40;20055;-67
2021/05/19 07:39:58;;;;;;;5.55;3.85;;;14.00;99.90;;;;;;3536325;40;20409;-67
2021/05/19 07:42:23;;;;;;;4.63;3.70;;;13.90;99.90;;;;;;3540192;40;20042;-67
2021/05/19 07:44:49;;;;;;;7.03;4.03;;;14.20;99.90;;;;;;3536427;40;20098;-67
2021/05/19 07:47:15;;;;;;;5.47;3.58;;;14.50;99.90;;;;;;3537791;40;20041;-67
2021/05/19 07:49:40;;;;;;;6.50;3.60;;;14.40;99.90;;;;;;3535321;40;20149;-66
2021/05/19 07:52:06;;;;;;;5.45;3.72;;;14.50;99.90;;;;;;3536154;40;20093;-67
2021/05/19 07:54:35;;;;;;;8.18;3.35;;;14.70;99.90;;;;;;3535380;40;20043;-67
2021/05/19 07:57:07;;;;;;;5.07;3.25;;;14.90;99.90;;;;;;3536774;40;20030;-67
2021/05/19 07:59:33;;;;;;;8.18;5.88;;;15.40;99.90;;;;;;3535948;40;20046;-67
2021/05/19 08:04:30;;;;;;;8.32;4.05;;;15.20;99.90;;;;;;3533423;40;20804;-67
2021/05/19 08:06:56;;;;;;;8.20;4.20;;;15.20;99.90;;;;;;3533419;40;20058;-67
2021/05/19 08:09:22;;;;;;;6.85;3.70;;;15.60;99.90;;;;;;3536255;40;20039;-66
2021/05/19 08:11:48;;;;;;;6.00;3.40;;;16.10;99.90;;;;;;3535177;40;20046;-67
2021/05/19 08:14:14;;;;;;;5.22;3.03;;;16.30;99.90;;;;;;3533676;40;20080;-67
2021/05/19 08:16:41;;;;;;;5.60;3.10;;;16.60;97.80;;;;;;3539982;40;20117;-67
2021/05/19 08:19:07;;;;;;;6.82;2.95;;;16.30;97.90;;;;;;3537980;40;20054;-67
2021/05/19 08:21:33;;;;;;;3.70;2.60;;;16.10;99.30;;;;;;3535571;40;20060;-70
2021/05/19 08:23:59;;;;;;;3.63;2.70;;;16.10;98.50;;;;;;3534054;40;20051;-68
2021/05/19 08:26:25;;;;;;;5.00;2.78;;;16.20;98.50;;;;;;3533396;40;20158;-68
2021/05/19 08:28:51;;;;;;;6.32;3.92;;;16.50;96.80;;;;;;3534681;40;20058;-67
2021/05/19 08:31:19;;;;;;;3.85;2.00;;;16.60;97.90;;;;;;3537219;40;20042;-67
2021/05/19 08:33:46;;;;;;;3.58;2.20;;;16.80;95.80;;;;;;3535077;40;20070;-67
2021/05/19 08:36:13;;;;;;;4.38;2.55;;;16.80;94.60;;;;;;3536464;40;20089;-67
2021/05/19 08:38:39;;;;;;;6.22;3.55;;;17.10;96.60;;;;;;3537678;40;20042;-67
2021/05/19 08:41:06;;;;;;;4.07;2.33;;;17.20;96.20;;;;;;3532887;40;20042;-67
2021/05/19 08:43:32;;;;;;;3.92;2.00;;;17.50;94.30;;;;;;3535547;40;20034;-68
2021/05/19 08:45:59;;;;;;;4.63;2.25;;;17.40;94.20;;;;;;3539101;40;20037;-67
2021/05/19 08:48:25;;;;;;;4.57;2.40;;;17.50;92.30;;;;;;3537083;40;20807;-67
2021/05/19 08:50:51;;;;;;;4.85;2.30;;;17.70;94.30;;;;;;3538186;40;20031;-67
2021/05/19 08:53:18;;;;;;;7.63;2.67;;;17.70;91.20;;;;;;3539914;40;20037;-67
2021/05/19 08:55:44;;;;;;;5.82;2.50;;;18.00;93.30;;;;;;3539027;40;20030;-67
2021/05/19 08:58:09;;;;;;;5.32;2.70;;;18.50;93.40;;;;;;3536085;40;20035;-67
2021/05/19 09:00:35;;;;;;;4.03;2.35;;;18.60;92.60;;;;;;3536410;40;20058;-68
2021/05/19 09:03:08;;;;;;;3.85;2.47;;;18.60;92.40;;;;;;3534481;40;20110;-67
2021/05/19 09:05:35;;;;;;;3.35;2.50;;;18.80;92.40;;;;;;3536571;40;20038;-67
2021/05/19 09:08:05;;;;;;;4.30;2.40;;;19.00;91.50;;;;;;3538549;40;20148;-67
2021/05/19 09:10:31;;;;;;;3.55;2.00;;;18.70;91.70;;;;;;3535055;40;20038;-67
2021/05/19 09:12:56;;;;;;;3.50;2.00;;;19.10;90.10;;;;;;3534063;40;20046;-68
2021/05/19 09:15:23;;;;;;;3.22;2.00;;;19.10;86.50;;;;;;3537691;40;20042;-67
2021/05/19 09:18:00;;;;;;;2.85;1.90;;;19.20;86.90;;;;;;3538352;40;20321;-68
2021/05/19 09:20:25;;;;;;;4.93;1.90;;;18.90;87.20;;;;;;3531883;40;20112;-67
2021/05/19 09:23:04;;;;;;;8.70;2.60;;;18.20;90.60;;;;;;3534637;40;20793;-68
2021/05/19 09:25:30;;;;;;;19.08;2.75;;;18.00;91.80;;;;;;3526664;40;20045;-67
2021/05/19 09:28:00;;;;;;;3.00;1.98;;;18.20;90.80;;;;;;3536016;40;20059;-68
2021/05/19 09:30:47;;;;;;;2.53;1.85;;;18.60;89.90;;;;;;3536082;40;20047;-67
2021/05/19 09:33:24;;;;;;;3.72;1.85;;;18.80;85.90;;;;;;3537335;40;20094;-67
2021/05/19 09:36:20;;;;;;;2.70;2.10;;;19.20;86.10;;;;;;3534396;40;20042;-67
2021/05/19 09:38:49;;;;;;;2.22;1.92;;;19.20;85.20;;;;;;3536108;40;20061;-67
2021/05/19 09:41:20;;;;;;;4.78;1.75;;;19.30;83.30;;;;;;3531742;40;20445;-67
2021/05/19 09:43:47;;;;;;;3.10;1.70;;;19.10;80.50;;;;;;3538613;40;20074;-68
2021/05/19 09:48:46;;;;;;;2.20;1.80;;;18.90;80.30;;;;;;3536616;40;20408;-67
2021/05/19 09:51:25;;;;;;;4.00;1.80;;;18.90;81.00;;;;;;3536863;40;20030;-67
2021/05/19 09:53:51;;;;;;;2.92;1.75;;;18.50;84.90;;;;;;3535390;40;20043;-68
2021/05/19 09:56:16;;;;;;;2.90;1.88;;;18.00;86.70;;;;;;3531984;40;20491;-67
2021/05/19 09:58:43;;;;;;;2.78;1.90;;;19.80;87.00;;;;;;3532573;40;20035;-67
2021/05/19 10:01:09;;;;;;;3.78;1.77;;;18.10;88.30;;;;;;3533825;40;20115;-67
2021/05/19 10:03:37;;;;;;;3.90;2.25;;;17.60;84.00;;;;;;3538342;40;20043;-67
2021/05/19 10:06:17;;;;;;;3.50;1.92;;;17.10;87.30;;;;;;3539153;40;20145;-67
2021/05/19 10:08:43;;;;;;;4.90;2.45;;;16.80;89.90;;;;;;3538341;40;20065;-67
2021/05/19 10:11:10;;;;;;;9.75;4.53;;;17.00;92.00;;;;;;3536584;40;20100;-67
2021/05/19 10:13:36;;;;;;;4.45;2.80;;;17.90;90.00;;;;;;3539020;40;20371;-67
2021/05/19 10:16:03;;;;;;;5.20;2.28;;;;;;;;;;3537277;40;20042;-67
2021/05/19 10:18:38;;;;;;;3.63;1.98;;;;;;;;;;3539311;40;20037;-68
2021/05/19 10:21:04;;;;;;;3.45;2.08;;;19.90;89.00;;;;;;3541250;40;20058;-69
2021/05/19 10:23:39;;;;;;;4.15;2.22;;;18.80;82.60;;;;;;3541800;40;20074;-68
2021/05/19 10:26:14;;;;;;;3.25;1.67;;;;;;;;;;3540010;40;20042;-68
2021/05/19 10:28:45;;;;;;;2.60;1.70;;;20.00;76.10;;;;;;3537085;40;20483;-68
2021/05/19 10:31:25;;;;;;;3.72;1.83;;;;;;;;;;3539176;40;20125;-68
2021/05/19 10:33:55;;;;;;;4.93;1.95;;;20.20;73.40;;;;;;3541199;40;20034;-68
2021/05/19 10:36:23;;;;;;;2.72;1.80;;;20.00;76.70;;;;;;3540448;40;20069;-60
2021/05/19 10:39:09;;;;;;;2.00;1.80;;;20.10;78.20;;;;;;3538677;40;20026;-61
2021/05/19 10:41:50;;;;;;;6.00;1.60;;;20.40;71.90;;;;;;3534785;40;20683;-61
2021/05/19 10:44:36;;;;;;;2.20;1.60;;;20.80;69.40;;;;;;3537488;40;20148;-61
2021/05/19 10:50:00;;;;;;;5.53;1.70;;;20.80;66.40;;;;;;3533317;40;20538;-62
2021/05/19 10:57:46;;;;;;;4.03;2.10;;;;;;;;;;3535760;40;20039;-61
2021/05/19 11:00:23;;;;;;;2.83;2.08;;;19.80;72.30;;;;;;3534145;40;20231;-61
2021/05/19 11:02:59;;;;;;;3.72;1.98;;;20.30;69.10;;;;;;3538232;40;20054;-61
2021/05/19 11:05:32;;;;;;;3.70;2.13;;;20.30;70.20;;;;;;3536203;40;20063;-61
2021/05/19 11:08:07;;;;;;;2.13;1.77;;;21.10;68.10;;;;;;3539239;40;20073;-62
2021/05/19 11:10:44;;;;;;;2.97;1.65;;;20.90;64.40;;;;;;3538016;40;20034;-62
2021/05/19 11:13:11;;;;;;;2.83;2.10;;;;;;;;;;3531751;40;20051;-59
2021/05/19 11:18:20;;;;;;;2.25;1.90;;;;;;;;;;3535105;40;20157;-59
2021/05/19 11:20:47;;;;;;;3.17;2.10;;;;;;;;;;3539492;40;20042;-59
2021/05/19 11:23:13;;;;;;;2.90;2.10;;;18.70;71.60;;;;;;3537719;40;20038;-60
2021/05/19 11:25:40;;;;;;;2.90;2.20;;;;;;;;;;3539508;40;20051;-59
2021/05/19 11:28:07;;;;;;;8.73;2.75;;;19.00;77.10;;;;;;3537676;40;20050;-59
2021/05/19 11:30:33;;;;;;;3.05;2.03;;;;;;;;;;3536469;40;20079;-59
2021/05/19 11:33:07;;;;;;;3.90;1.90;;;;;;;;;;3538508;40;20388;-59
2021/05/19 11:35:33;;;;;;;3.47;2.30;;;;;;;;;;3534275;40;20165;-67
2021/05/19 11:38:01;;;;;;;3.30;1.90;;;;;;;;;;3533050;40;20041;-67
2021/05/19 11:40:43;;;;;;;5.18;1.90;;;21.10;68.60;;;;;;3535563;40;20030;-67
2021/05/19 11:43:15;;;;;;;2.05;1.75;;;21.30;66.60;;;;;;3534083;40;20058;-68
2021/05/19 11:45:43;;;;;;;2.78;1.50;;;22.10;61.30;;;;;;3538342;40;20050;-68
2021/05/19 11:48:26;;;;;;;2.22;1.35;;;22.20;60.30;;;;;;3531934;40;20929;-67
2021/05/19 11:50:53;;;;;;;1.75;1.58;;;21.90;72.40;;;;;;3540356;40;20047;-59
2021/05/19 11:53:20;;;;;;;1.52;1.42;;;;;;;;;;3537282;40;20160;-59
2021/05/19 11:55:49;;;;;;;2.10;1.45;;;22.70;67.80;;;;;;3535184;40;20057;-60
2021/05/19 11:58:27;;;;;;;1.92;1.45;;;23.10;61.00;;;;;;3537899;40;20045;-59
2021/05/19 12:01:01;;;;;;;2.95;1.73;;;;;;;;;;3530866;40;20053;-59
2021/05/19 12:03:30;;;;;;;1.40;1.30;;;23.30;54.40;;;;;;3531697;40;20042;-59
2021/05/19 12:05:59;;;;;;;4.53;2.72;;;;;;;;;;3536270;40;20756;-59
2021/05/19 12:08:32;;;;;;;3.45;1.45;;;23.40;51.50;;;;;;3536325;40;20043;-59
2021/05/19 12:11:19;;;;;;;2.10;1.33;;;23.40;52.10;;;;;;3533972;40;20622;-60
2021/05/19 12:13:55;;;;;;;2.97;1.48;;;23.60;53.60;;;;;;3534370;40;20727;-59
2021/05/19 12:16:30;;;;;;;1.63;1.52;;;23.80;53.60;;;;;;3532786;40;20042;-59
2021/05/19 12:19:09;;;;;;;1.30;1.03;;;23.90;51.90;;;;;;3537284;40;20034;-60
2021/05/19 12:21:39;;;;;;;2.42;1.27;;;24.00;66.60;;;;;;3536215;40;20086;-59
2021/05/19 12:24:06;;;;;;;1.38;1.27;;;23.70;52.00;;;;;;3537507;40;20111;-59
2021/05/19 12:26:33;;;;;;;1.40;1.30;;;24.30;53.30;;;;;;3538312;40;20045;-60
2021/05/19 12:28:59;;;;;;;1.90;1.10;;;;;;;;;;3531255;40;20073;-59
2021/05/19 12:31:33;;;;;;;2.35;1.90;;;;;;;;;;3536017;40;20030;-59
2021/05/19 12:34:00;;;;;;;2.00;1.23;;;;;;;;;;3534765;40;20140;-60
2021/05/19 12:36:40;;;;;;;4.07;1.25;;;24.70;51.30;;;;;;3538253;40;20054;-60
2021/05/19 12:39:07;;;;;;;1.45;1.05;;;;;;;;;;3532003;40;20041;-60
2021/05/19 12:41:45;;;;;;;1.88;1.30;;;;;;;;;;3532485;40;20058;-60
2021/05/19 12:44:17;;;;;;;1.88;1.20;;;24.30;48.60;;;;;;3534949;40;20067;-59
2021/05/19 12:47:06;;;;;;;2.35;1.48;;;23.30;51.30;;;;;;3536275;40;20116;-59
2021/05/19 12:49:36;;;;;;;1.33;1.10;;;23.10;51.80;;;;;;3535722;40;20051;-59
2021/05/19 12:52:04;;;;;;;3.88;1.20;;;23.10;53.70;;;;;;3533561;40;20043;-60
2021/05/19 12:54:37;;;;;;;2.25;1.35;;;23.90;48.60;;;;;;3538315;40;20108;-60
2021/05/19 12:57:09;;;;;;;2.90;1.60;;;24.00;50.50;;;;;;3535436;40;20101;-59
2021/05/19 12:59:53;;;;;;;5.15;2.55;;;24.40;50.10;;;;;;3535553;40;20444;-60
2021/05/19 13:02:21;;;;;;;1.33;1.00;;;25.50;48.70;;;;;;3534381;40;20951;-60
2021/05/19 13:04:50;;;;;;;1.23;1.00;;;;;;;;;;3532574;40;20503;-59
2021/05/19 13:07:24;;;;;;;1.90;1.10;;;24.80;50.20;;;;;;3536202;40;20624;-59
2021/05/19 13:10:08;;;;;;;1.30;1.20;;;24.00;50.40;;;;;;3535021;40;20031;-59
2021/05/19 13:12:36;;;;;;;3.83;1.20;;;;;;;;;;3536113;40;20045;-59
2021/05/19 13:15:02;;;;;;;2.63;1.30;;;;;;;;;;3533228;40;20053;-59
2021/05/19 13:17:42;;;;;;;3.25;1.58;;;25.10;46.80;;;;;;3530306;40;20707;-60